Thunder radar more information blitzortung!


Radar de pluja more information rain snow radar


Visita la nostra xarxa de llocs de meteo:

Template documentation
and downloads

And another site



No particular awareness of the weather is required.    There are no Weather-warnings

Pagina Historial Weather Underground text

Diari Resum Octubre 22, 2017 Unitats:  Imperial    Mètric   Tant
« Previous Dia
SegĂźent Dia »
Diari Setmana Mensual Anual Personalitzada
  Maxima: Minima: Media:
Temperatura: TemperatureC °F 13.0 °F 17.1 °F
Punt de rosada: DewpointC °F 5.2 °F 7.6 °F
Humitat: Humidity % 47 % 54 %
Wind Speed: WindSpeedKMH mph 0.0 mph 4.8 mph
RĂ fegues de vent: WindSpeedGustKMH mph - -
Vent:- - WSW
Pression baro: PressurehPa in 1021.9 in -
Precipitacions: 0.0 in    
Historical Graphs
 
 
Dades de taula per Octubre 22, 2017
Temps Temperatura Punt de rosada Pression baro Vent Wind Speed RĂ fegues de vent Humitat Rainfall Rate (Hourly)
TemperatureC °F DewpointC °F PressurehPa in Calm     Humidity % HourlyPrecipMM in
00:03 17.6 °F 14.5 °F 1021.9 in WSW 3.7 mph 3.7 mph 82 % 0.0 in
00:05 15.3 °F 7.8 °F 1022.9 in NW 1.6 mph 3.2 mph 61 % 0.0 in
00:08 17.6 °F 14.5 °F 1021.9 in WSW 1.9 mph   82 % 0.0 in
00:13 17.7 °F 14.8 °F 1021.9 in WSW 1.9 mph   83 % 0.0 in
00:15 15.0 °F 7.6 °F 1022.9 in North 3.2 mph 3.2 mph 61 % 0.0 in
00:25 15.0 °F 7.6 °F 1022.9 in West 1.6 mph 6.4 mph 61 % 0.0 in
00:35 14.9 °F 7.2 °F 1023.9 in WNW 3.2 mph 8.0 mph 60 % 0.0 in
00:45 14.8 °F 7.1 °F 1023.9 in NW 3.2 mph 4.8 mph 60 % 0.0 in
00:55 14.8 °F 6.8 °F 1023.9 in NW 8.0 mph 8.0 mph 59 % 0.0 in
01:05 14.7 °F 6.5 °F 1023.9 in WNW 8.0 mph 9.7 mph 58 % 0.0 in
01:15 14.6 °F 6.4 °F 1023.9 in West 3.2 mph 4.8 mph 58 % 0.0 in
01:25 14.5 °F 6.3 °F 1023.9 in West 3.2 mph 4.8 mph 58 % 0.0 in
01:35 14.3 °F 6.2 °F 1023.9 in WNW 1.6 mph 3.2 mph 58 % 0.0 in
01:45 14.2 °F 6.1 °F 1023.9 in North 3.2 mph 3.2 mph 58 % 0.0 in
01:55 14.1 °F 5.9 °F 1023.9 in NNW 1.6 mph 9.7 mph 58 % 0.0 in
02:05 14.0 °F 5.8 °F 1023.9 in NNW 3.2 mph 8.0 mph 58 % 0.0 in
02:15 13.8 °F 5.9 °F 1023.9 in NNE 1.6 mph 4.8 mph 59 % 0.0 in
02:25 13.7 °F 5.8 °F 1023.9 in NE 3.2 mph 8.0 mph 59 % 0.0 in
02:35 13.6 °F 5.7 °F 1023.9 in NNE 1.6 mph 3.2 mph 59 % 0.0 in
02:45 13.5 °F 5.9 °F 1023.9 in Calm   3.2 mph 60 % 0.0 in
02:55 13.3 °F 5.7 °F 1023.9 in North 1.6 mph 3.2 mph 60 % 0.0 in
03:05 13.2 °F 5.6 °F 1023.9 in WNW 1.6 mph 3.2 mph 60 % 0.0 in
03:15 13.2 °F 5.6 °F 1023.9 in WNW 1.6 mph 4.8 mph 60 % 0.0 in
03:25 13.0 °F 5.4 °F 1023.9 in Calm   1.6 mph 60 % 0.0 in
03:35 13.0 °F 5.7 °F 1023.9 in NNE 1.6 mph 3.2 mph 61 % 0.0 in
03:45 13.0 °F 5.7 °F 1024.9 in NW 1.6 mph 6.4 mph 61 % 0.0 in
03:55 13.1 °F 5.7 °F 1024.9 in West 3.2 mph 4.8 mph 61 % 0.0 in
04:05 13.0 °F 5.7 °F 1024.9 in West 1.6 mph 4.8 mph 61 % 0.0 in
04:15 13.0 °F 5.9 °F 1024.9 in Calm   3.2 mph 62 % 0.0 in
04:25 14.0 °F 6.8 °F 1024.9 in SW 1.6 mph 3.2 mph 62 % 0.0 in
04:35 14.4 °F 6.9 °F 1024.9 in ENE 1.6 mph 4.8 mph 61 % 0.0 in
04:45 14.2 °F 6.8 °F 1024.9 in NE 1.6 mph 1.6 mph 61 % 0.0 in
04:55 14.3 °F 7.1 °F 1024.9 in Calm   4.8 mph 62 % 0.0 in
05:05 14.8 °F 7.3 °F 1026.0 in NE 1.6 mph 4.8 mph 61 % 0.0 in
05:15 15.0 °F 7.6 °F 1024.9 in NE 3.2 mph 4.8 mph 61 % 0.0 in
05:25 15.2 °F 7.7 °F 1024.9 in WNW 3.2 mph 4.8 mph 61 % 0.0 in
05:35 15.3 °F 7.6 °F 1024.9 in WSW 3.2 mph 8.0 mph 60 % 0.0 in
05:45 15.9 °F 8.2 °F 1024.9 in WSW 1.6 mph 6.4 mph 60 % 0.0 in
05:55 15.6 °F 7.8 °F 1024.9 in West 8.0 mph 8.0 mph 60 % 0.0 in
06:05 16.0 °F 8.0 °F 1026.0 in West 1.6 mph 4.8 mph 59 % 0.0 in
11:09 16.2 °F 8.2 °F 1026.0 in WSW 5.6 mph 5.6 mph 59 % 0.0 in
11:10 16.2 °F 7.9 °F 1026.0 in West 5.6 mph 5.8 mph 58 % 0.0 in
11:15 16.1 °F 7.8 °F 1026.0 in West 18.5 mph 18.5 mph 58 % 0.0 in
11:20 16.1 °F 7.6 °F 1026.0 in SW 7.4 mph 7.4 mph 57 % 0.0 in
11:25 16.2 °F 7.7 °F 1024.9 in SSW 9.3 mph 9.3 mph 57 % 0.0 in
11:30 16.5 °F 8.2 °F 1024.9 in WNW 7.9 mph 7.9 mph 58 % 0.0 in
11:35 16.7 °F 8.1 °F 1024.9 in ENE 7.4 mph 7.4 mph 57 % 0.0 in
11:40 16.9 °F 8.3 °F 1026.0 in WSW 4.7 mph 4.7 mph 57 % 0.0 in
11:45 17.3 °F 8.4 °F 1026.0 in WSW 5.0 mph 5.0 mph 56 % 0.0 in
11:50 17.5 °F 8.6 °F 1026.0 in SW 5.6 mph 5.6 mph 56 % 0.0 in
11:55 17.7 °F 8.8 °F 1026.0 in SW 9.3 mph 9.3 mph 56 % 0.0 in
12:00 17.6 °F 8.7 °F 1026.0 in SW 9.3 mph 9.3 mph 56 % 0.0 in
12:05 17.4 °F 8.3 °F 1026.0 in WNW 13.0 mph 13.0 mph 55 % 0.0 in
12:10 17.5 °F 8.3 °F 1026.0 in WSW 9.3 mph 9.3 mph 55 % 0.0 in
12:15 17.6 °F 8.4 °F 1026.0 in NNE 9.3 mph 9.3 mph 55 % 0.0 in
12:20 17.7 °F 8.3 °F 1026.0 in WNW 7.4 mph 7.4 mph 54 % 0.0 in
12:25 18.0 °F 8.6 °F 1024.9 in WNW 5.6 mph 5.6 mph 54 % 0.0 in
12:29 18.1 °F 8.7 °F 1024.9 in SW 5.6 mph 5.6 mph 54 % 0.0 in
12:34 18.1 °F 8.7 °F 1024.9 in WSW 13.0 mph 13.0 mph 54 % 0.0 in
12:39 18.2 °F 8.4 °F 1024.9 in WSW 3.7 mph 3.7 mph 53 % 0.0 in
12:44 18.3 °F 8.8 °F 1026.0 in West 7.6 mph 7.6 mph 54 % 0.0 in
12:49 18.3 °F 8.6 °F 1026.0 in WSW 16.7 mph 16.7 mph 53 % 0.0 in
12:54 18.6 °F 8.8 °F 1024.9 in WNW 5.6 mph 5.6 mph 53 % 0.0 in
12:59 18.8 °F 9.0 °F 1024.9 in WSW 7.4 mph 7.4 mph 53 % 0.0 in
13:04 19.0 °F 8.9 °F 1024.9 in WSW 12.6 mph 12.6 mph 52 % 0.0 in
13:09 18.8 °F 9.0 °F 1024.9 in WNW 5.6 mph 5.6 mph 53 % 0.0 in
13:10 18.9 °F 9.1 °F 1024.9 in NW 5.6 mph 5.6 mph 53 % 0.0 in
13:15 18.7 °F 8.6 °F 1024.9 in SW 7.4 mph 7.4 mph 52 % 0.0 in
13:20 18.7 °F 8.6 °F 1024.9 in SW 7.4 mph 7.4 mph 52 % 0.0 in
13:25 18.9 °F 8.8 °F 1026.0 in NW 9.3 mph 9.3 mph 52 % 0.0 in
13:30 18.9 °F 8.8 °F 1026.0 in WNW 7.4 mph 7.4 mph 52 % 0.0 in
13:35 18.8 °F 8.7 °F 1026.0 in WNW 5.6 mph 5.6 mph 52 % 0.0 in
13:40 19.1 °F 8.7 °F 1026.0 in NNE 7.4 mph 7.4 mph 51 % 0.0 in
13:45 19.4 °F 9.0 °F 1026.0 in WNW 9.3 mph 9.3 mph 51 % 0.0 in
13:50 19.5 °F 9.1 °F 1026.0 in West 9.3 mph 9.3 mph 51 % 0.0 in
13:55 19.4 °F 9.0 °F 1026.0 in SW 10.0 mph 10.0 mph 51 % 0.0 in
14:00 19.3 °F 8.6 °F 1026.0 in WSW 5.6 mph 5.6 mph 50 % 0.0 in
14:05 19.5 °F 9.1 °F 1026.0 in WNW 7.2 mph 7.2 mph 51 % 0.0 in
14:10 19.7 °F 9.0 °F 1026.0 in SW 9.7 mph 9.7 mph 50 % 0.0 in
14:15 19.6 °F 8.9 °F 1026.0 in West 7.4 mph 7.4 mph 50 % 0.0 in
14:20 19.5 °F 8.8 °F 1026.0 in WSW 5.6 mph 5.6 mph 50 % 0.0 in
14:25 19.8 °F 9.1 °F 1026.0 in West 13.0 mph 13.0 mph 50 % 0.0 in
14:30 19.8 °F 9.1 °F 1026.0 in West 7.4 mph 7.4 mph 50 % 0.0 in
14:35 19.8 °F 8.8 °F 1026.0 in SW 10.0 mph 10.0 mph 49 % 0.0 in
14:40 19.8 °F 8.8 °F 1024.9 in WNW 9.3 mph 9.3 mph 49 % 0.0 in
14:45 19.7 °F 8.7 °F 1024.9 in NW 5.6 mph 5.6 mph 49 % 0.0 in
14:50 19.9 °F 9.2 °F 1024.9 in WSW 5.3 mph 7.9 mph 50 % 0.0 in
14:55 19.8 °F 8.8 °F 1023.9 in West 7.4 mph 7.4 mph 49 % 0.0 in
15:00 20.2 °F 9.2 °F 1023.9 in WSW 7.4 mph 7.4 mph 49 % 0.0 in
15:05 20.2 °F 9.2 °F 1023.9 in WSW 13.0 mph 13.0 mph 49 % 0.0 in
15:10 20.1 °F 9.1 °F 1023.9 in West 5.8 mph 5.8 mph 49 % 0.0 in
15:20 20.3 °F 9.2 °F 1023.9 in WSW 13.0 mph 13.0 mph 49 % 0.0 in
15:25 20.3 °F 9.2 °F 1023.9 in SW 7.4 mph 7.4 mph 49 % 0.0 in
15:30 20.5 °F 9.4 °F 1023.9 in SW 5.6 mph 5.6 mph 49 % 0.0 in
15:35 20.5 °F 9.4 °F 1023.9 in SW 11.1 mph 11.1 mph 49 % 0.0 in
15:40 20.1 °F 8.7 °F 1022.9 in WNW 9.3 mph 9.3 mph 48 % 0.0 in
15:45 20.5 °F 9.4 °F 1022.9 in WSW 11.1 mph 11.1 mph 49 % 0.0 in
15:50 20.5 °F 9.1 °F 1022.9 in WSW 5.6 mph 5.6 mph 48 % 0.0 in
15:55 20.5 °F 9.1 °F 1023.9 in WSW 6.4 mph 6.4 mph 48 % 0.0 in
16:00 20.4 °F 9.0 °F 1023.9 in NW 9.3 mph 9.3 mph 48 % 0.0 in
16:05 20.6 °F 9.2 °F 1023.9 in West 7.4 mph 7.4 mph 48 % 0.0 in
16:10 20.5 °F 9.1 °F 1023.9 in WSW 7.4 mph 7.4 mph 48 % 0.0 in
16:15 20.6 °F 9.2 °F 1023.9 in SW 6.9 mph 6.9 mph 48 % 0.0 in
16:20 20.5 °F 9.1 °F 1023.9 in WNW 11.1 mph 11.1 mph 48 % 0.0 in
16:25 20.5 °F 9.1 °F 1022.9 in WSW 5.6 mph 5.6 mph 48 % 0.0 in
16:30 20.5 °F 9.1 °F 1022.9 in WSW 3.7 mph 3.7 mph 48 % 0.0 in
16:35 20.5 °F 9.1 °F 1022.9 in WSW 7.4 mph 7.4 mph 48 % 0.0 in
16:40 20.7 °F 9.3 °F 1022.9 in West 5.6 mph 5.6 mph 48 % 0.0 in
16:45 20.8 °F 9.4 °F 1022.9 in NW 7.4 mph 7.4 mph 48 % 0.0 in
16:50 20.7 °F 9.3 °F 1022.9 in WSW 9.3 mph 9.3 mph 48 % 0.0 in
16:55 20.7 °F 9.0 °F 1022.9 in NW 3.7 mph 3.7 mph 47 % 0.0 in
17:00 20.9 °F 9.5 °F 1022.9 in SW 5.6 mph 5.6 mph 48 % 0.0 in
17:05 20.9 °F 9.2 °F 1022.9 in West 9.3 mph 9.3 mph 47 % 0.0 in
17:10 20.8 °F 9.1 °F 1022.9 in WSW 9.3 mph 9.3 mph 47 % 0.0 in
17:15 21.0 °F 9.3 °F 1022.9 in WNW 5.6 mph 5.6 mph 47 % 0.0 in
17:20 21.0 °F 9.3 °F 1022.9 in WSW 5.6 mph 5.6 mph 47 % 0.0 in
17:21 20.9 °F 9.2 °F 1022.9 in West 5.8 mph 5.8 mph 47 % 0.0 in
17:26 20.6 °F 8.9 °F 1022.9 in West 5.6 mph 5.6 mph 47 % 0.0 in
17:31 20.3 °F 8.6 °F 1022.9 in WNW 6.1 mph 6.1 mph 47 % 0.0 in
17:36 20.3 °F 8.6 °F 1022.9 in North 5.6 mph 5.6 mph 47 % 0.0 in
17:41 20.0 °F 8.3 °F 1022.9 in SSW 5.6 mph 5.6 mph 47 % 0.0 in
17:46 20.0 °F 8.3 °F 1022.9 in NNW 7.4 mph 7.4 mph 47 % 0.0 in
17:51 19.9 °F 8.2 °F 1022.9 in NW 5.6 mph 5.6 mph 47 % 0.0 in
17:56 19.8 °F 8.2 °F 1022.9 in West 5.6 mph 5.6 mph 47 % 0.0 in
18:01 19.9 °F 8.2 °F 1022.9 in WNW 3.7 mph 3.7 mph 47 % 0.0 in
18:06 19.8 °F 8.2 °F 1022.9 in WNW 3.7 mph 3.7 mph 47 % 0.0 in
18:11 19.7 °F 8.4 °F 1022.9 in WNW 5.6 mph 5.6 mph 48 % 0.0 in
18:16 19.6 °F 8.3 °F 1022.9 in West 5.6 mph 5.6 mph 48 % 0.0 in
18:21 19.4 °F 8.1 °F 1022.9 in NNW 5.6 mph 5.6 mph 48 % 0.0 in
18:26 19.2 °F 7.9 °F 1022.9 in SW 4.7 mph 4.7 mph 48 % 0.0 in
18:31 19.1 °F 7.8 °F 1022.9 in WSW 5.6 mph 5.6 mph 48 % 0.0 in
18:36 19.0 °F 7.7 °F 1022.9 in WNW 9.3 mph 9.3 mph 48 % 0.0 in
18:41 18.8 °F 7.8 °F 1022.9 in North 5.6 mph 5.6 mph 49 % 0.0 in
18:46 18.7 °F 7.8 °F 1022.9 in WNW 5.6 mph 5.6 mph 49 % 0.0 in
18:51 18.4 °F 7.5 °F 1022.9 in SW 5.6 mph 5.6 mph 49 % 0.0 in
18:56 18.2 °F 7.3 °F 1022.9 in WSW 4.7 mph 4.7 mph 49 % 0.0 in
19:01 18.0 °F 7.1 °F 1022.9 in West 3.9 mph 3.9 mph 49 % 0.0 in
19:06 17.9 °F 7.0 °F 1022.9 in SW 3.7 mph 3.7 mph 49 % 0.0 in
19:11 17.7 °F 6.8 °F 1022.9 in SW 2.3 mph   49 % 0.0 in
19:16 17.5 °F 6.9 °F 1022.9 in WNW 1.9 mph 1.9 mph 50 % 0.0 in
19:21 17.3 °F 6.8 °F 1022.9 in NW 1.9 mph   50 % 0.0 in
19:26 17.1 °F 6.6 °F 1023.9 in Calm     50 % 0.0 in
19:31 17.0 °F 6.5 °F 1023.9 in Calm     50 % 0.0 in
19:36 17.0 °F 6.5 °F 1023.9 in West 1.9 mph 1.9 mph 50 % 0.0 in
19:41 16.9 °F 7.0 °F 1023.9 in West 1.9 mph 1.9 mph 52 % 0.0 in
19:46 16.8 °F 6.9 °F 1023.9 in West 2.3 mph   52 % 0.0 in
19:51 16.6 °F 6.7 °F 1023.9 in West 2.3 mph 2.3 mph 52 % 0.0 in
19:56 16.6 °F 6.7 °F 1023.9 in West 3.7 mph 3.7 mph 52 % 0.0 in
20:01 16.6 °F 6.7 °F 1023.9 in WSW 3.7 mph 3.7 mph 52 % 0.0 in
20:06 16.7 °F 6.8 °F 1023.9 in West 4.2 mph 4.2 mph 52 % 0.0 in
20:11 16.6 °F 6.7 °F 1023.9 in WSW 5.6 mph 5.6 mph 52 % 0.0 in
20:16 16.6 °F 6.7 °F 1023.9 in West 3.2 mph 3.2 mph 52 % 0.0 in
20:21 16.5 °F 6.9 °F 1023.9 in WSW 2.3 mph 2.3 mph 53 % 0.0 in
20:26 16.4 °F 6.8 °F 1023.9 in WSW 3.7 mph 3.7 mph 53 % 0.0 in
20:31 16.3 °F 6.7 °F 1023.9 in WSW 1.9 mph   53 % 0.0 in
20:36 16.2 °F 6.6 °F 1023.9 in Calm     53 % 0.0 in
20:41 16.2 °F 6.6 °F 1023.9 in WNW 2.3 mph   53 % 0.0 in
20:46 16.2 °F 6.6 °F 1023.9 in WSW 3.7 mph 3.7 mph 53 % 0.0 in
20:51 16.2 °F 6.6 °F 1023.9 in West 3.2 mph   53 % 0.0 in
20:56 16.2 °F 6.6 °F 1023.9 in West 3.7 mph 3.7 mph 53 % 0.0 in
21:01 16.2 °F 6.6 °F 1023.9 in West 3.7 mph 3.7 mph 53 % 0.0 in
21:06 16.1 °F 6.5 °F 1023.9 in WSW 3.7 mph   53 % 0.0 in
21:11 16.0 °F 6.4 °F 1023.9 in SW 3.7 mph   53 % 0.0 in
21:16 15.9 °F 6.6 °F 1023.9 in Calm     54 % 0.0 in
21:21 15.7 °F 6.4 °F 1023.9 in West 2.3 mph 2.3 mph 54 % 0.0 in
21:26 15.6 °F 6.3 °F 1023.9 in WSW 3.9 mph 3.9 mph 54 % 0.0 in
21:31 15.5 °F 6.2 °F 1023.9 in WSW 2.3 mph 2.3 mph 54 % 0.0 in
21:36 15.4 °F 6.1 °F 1023.9 in West 3.7 mph 3.7 mph 54 % 0.0 in
21:41 15.4 °F 6.1 °F 1023.9 in West 1.9 mph   54 % 0.0 in
21:46 15.3 °F 6.1 °F 1023.9 in West 2.6 mph   54 % 0.0 in
21:51 15.3 °F 6.3 °F 1023.9 in WSW 1.9 mph   55 % 0.0 in
21:56 15.2 °F 6.2 °F 1023.9 in WSW 1.9 mph 1.9 mph 55 % 0.0 in
22:01 15.1 °F 6.1 °F 1023.9 in SW 1.9 mph 1.9 mph 55 % 0.0 in
22:06 14.9 °F 6.2 °F 1023.9 in Calm     56 % 0.0 in
22:16 14.6 °F 5.9 °F 1023.9 in West 1.9 mph   56 % 0.0 in
22:21 14.6 °F 5.9 °F 1023.9 in Calm     56 % 0.0 in
22:26 14.6 °F 5.7 °F 1023.9 in NW 1.9 mph 1.9 mph 55 % 0.0 in
22:31 14.6 °F 5.9 °F 1023.9 in Calm     56 % 0.0 in
22:36 14.5 °F 5.8 °F 1023.9 in West 1.4 mph 1.9 mph 56 % 0.0 in
22:41 14.5 °F 5.8 °F 1024.9 in Calm     56 % 0.0 in
22:46 14.5 °F 5.8 °F 1024.9 in NNE 1.9 mph 1.9 mph 56 % 0.0 in
22:51 14.4 °F 5.7 °F 1024.9 in Calm     56 % 0.0 in
22:56 14.4 °F 5.7 °F 1024.9 in Calm     56 % 0.0 in
23:01 14.3 °F 5.6 °F 1024.9 in Calm     56 % 0.0 in
23:06 14.3 °F 5.9 °F 1024.9 in Calm     57 % 0.0 in
23:11 14.2 °F 5.8 °F 1024.9 in WNW 1.9 mph   57 % 0.0 in
23:16 14.2 °F 5.8 °F 1024.9 in WNW 1.9 mph   57 % 0.0 in
23:21 14.1 °F 5.7 °F 1024.9 in WNW 1.9 mph 1.9 mph 57 % 0.0 in
23:26 14.0 °F 5.6 °F 1024.9 in NE 1.9 mph   57 % 0.0 in
23:31 13.9 °F 5.8 °F 1024.9 in NE 3.2 mph   58 % 0.0 in
23:36 13.9 °F 5.8 °F 1024.9 in WNW 3.7 mph 3.7 mph 58 % 0.0 in
23:41 13.9 °F 5.8 °F 1024.9 in NNE 1.9 mph   58 % 0.0 in
23:46 13.8 °F 5.9 °F 1024.9 in WNW 1.9 mph   59 % 0.0 in
23:51 13.4 °F 5.6 °F 1024.9 in SW 3.5 mph 3.5 mph 59 % 0.0 in
23:56 13.0 °F 5.2 °F 1024.9 in WSW 3.9 mph 3.9 mph 59 % 0.0 in
Meteo Sesrovires
Elogis d' Weather Underground - 4 mb

Guio original per  Jim McMurry - jmcmurry@mwt.net Adaptat per a la plantilla per  Wim van der Kuil - Leuven-Template.eu

Trobareu la nostra informacio del temps tambe a:

Weather Underground

AWEKAS